Keystone, South Dakota
Current Conditions -  °F | °C
As of 10:53 PM on Sunday 23 Nov 2014 (Local Time) from KCUT Reporting Station
Clear Clear  
Wind Chill: 14°   Ceiling: Unl
Heat Index: 26°   Visibility: 10mi
Dew Point: 12°   Wind: 15mph
Humidity: 55%   Direction: 290°WNW
Pressure: 29.67"   Gusts: 28mph
Location:  43.9°N, 103.42°W
Report Text: KCUT 240553Z AUTO 29013G24KT 10SM CLR M03/M11 A2967 RMK AO2 SLP073 T10331111 11028 21033 57001
Loading
Personal Weather Stations






























Interactive Weather Map New forecast layout! Learn more

10-Day Weather Forecast

Advertisements
Track Severe Weather on mobile